Time;durP1;ratioP1;P1;durP2;ratioP2;P2;SDS_P1;SDS_P2;PMS_P1;PMS_P2;Temp;Humidity;BMP_temperature;BMP_pressure;BME280_temperature;BME280_humidity;BME280_pressure;Samples;Min_cycle;Max_cycle;Signal;HPM_P1;HPM_P2
2022/02/09 00:09:54;;;;;;;12.07;8.00;;;9.80;77.20;;;;;;5038684;28;20120;-52
2022/02/09 00:12:30;;;;;;;13.65;8.85;;;9.80;77.20;;;;;;5038175;28;20390;-56
2022/02/09 00:15:29;;;;;;;12.52;7.95;;;9.80;76.90;;;;;;5037745;28;20033;-52
2022/02/09 00:17:54;;;;;;;12.82;8.35;;;9.80;76.90;;;;;;5037698;28;20099;-53
2022/02/09 00:23:31;;;;;;;13.68;9.27;;;9.70;77.60;;;;;;5038010;28;20444;-54
2022/02/09 01:12:22;;;;;;;13.23;8.77;;;9.80;77.10;;;;;;5037542;28;20076;-52
2022/02/09 01:43:11;;;;;;;10.13;6.10;;;9.50;77.60;;;;;;5041011;28;20033;-52
2022/02/09 01:55:46;;;;;;;12.07;7.43;;;9.70;77.70;;;;;;5040484;28;20032;-54
2022/02/09 01:58:11;;;;;;;9.73;5.90;;;9.70;77.50;;;;;;5040489;28;20489;-54
2022/02/09 02:00:38;;;;;;;10.80;6.47;;;9.70;77.60;;;;;;5040685;28;20409;-55
2022/02/09 02:03:03;;;;;;;11.95;6.63;;;9.70;78.20;;;;;;5040478;28;20437;-55
2022/02/09 02:05:30;;;;;;;10.18;6.30;;;9.70;77.90;;;;;;5040599;28;20052;-50
2022/02/09 02:07:59;;;;;;;12.30;6.63;;;9.70;78.10;;;;;;5040268;28;20469;-54
2022/02/09 02:10:36;;;;;;;10.32;6.03;;;9.70;78.10;;;;;;5040360;28;20032;-48
2022/02/09 02:18:04;;;;;;;8.60;5.32;;;9.80;77.80;;;;;;5040209;28;20029;-54
2022/02/09 02:20:58;;;;;;;9.48;5.72;;;9.80;77.40;;;;;;5040183;28;20484;-54
2022/02/09 03:12:30;;;;;;;10.73;6.78;;;9.70;77.20;;;;;;5039399;28;20033;-54
2022/02/09 03:15:14;;;;;;;9.13;5.65;;;9.80;77.20;;;;;;5038825;28;20038;-53
2022/02/09 03:17:44;;;;;;;9.85;5.95;;;9.70;77.60;;;;;;5039110;28;20104;-54
2022/02/09 03:20:25;;;;;;;12.27;7.35;;;9.70;77.50;;;;;;5038950;28;20033;-52
2022/02/09 03:23:02;;;;;;;10.52;6.43;;;9.70;77.10;;;;;;5038743;28;20029;-55
2022/02/09 03:49:40;;;;;;;14.23;8.63;;;9.60;77.50;;;;;;5038657;28;20473;-54
2022/02/09 03:55:09;;;;;;;18.70;10.27;;;9.60;77.80;;;;;;5038406;28;20037;-53
2022/02/09 03:57:45;;;;;;;16.27;9.18;;;9.60;77.80;;;;;;5038345;28;20033;-53
2022/02/09 04:00:16;;;;;;;12.88;7.63;;;9.60;77.70;;;;;;5037451;28;20029;-54
2022/02/09 04:02:46;;;;;;;13.05;7.47;;;9.60;77.80;;;;;;5038539;28;20026;-55
2022/02/09 04:05:13;;;;;;;10.70;6.57;;;9.60;77.80;;;;;;5037995;28;20048;-50
2022/02/09 04:07:39;;;;;;;10.88;6.30;;;9.70;77.60;;;;;;5038122;28;20485;-55
2022/02/09 04:10:08;;;;;;;11.45;6.65;;;9.70;77.50;;;;;;5038709;28;20025;-52
2022/02/09 04:15:28;;;;;;;11.23;6.68;;;9.70;77.60;;;;;;5038430;28;20021;-52
2022/02/09 04:18:03;;;;;;;10.15;6.40;;;9.70;77.70;;;;;;5038402;28;20120;-55
2022/02/09 04:39:45;;;;;;;9.98;5.50;;;9.70;77.90;;;;;;5044263;28;20045;-53
2022/02/09 04:47:31;;;;;;;7.22;4.13;;;9.60;76.90;;;;;;5037890;28;20045;-53
2022/02/09 04:52:38;;;;;;;9.75;4.75;;;9.50;77.30;;;;;;5037573;28;20022;-52
2022/02/09 04:55:26;;;;;;;10.15;4.88;;;9.50;77.30;;;;;;5037645;28;20037;-52
2022/02/09 04:57:56;;;;;;;9.90;5.05;;;9.50;77.10;;;;;;5037421;28;20029;-53
2022/02/09 05:27:23;;;;;;;9.35;4.35;;;9.60;76.90;;;;;;5041455;28;20033;-51
2022/02/09 05:29:49;;;;;;;9.90;4.90;;;9.50;77.00;;;;;;5041119;28;20036;-53
2022/02/09 05:32:15;;;;;;;8.05;4.32;;;9.50;77.30;;;;;;5040962;28;20075;-53
2022/02/09 05:34:41;;;;;;;7.60;4.18;;;9.50;77.20;;;;;;5040869;28;20025;-51
2022/02/09 05:37:07;;;;;;;8.57;4.40;;;9.50;77.30;;;;;;5040927;28;20021;-52
2022/02/09 05:39:32;;;;;;;9.32;5.03;;;9.50;77.30;;;;;;5041045;28;20029;-56
2022/02/09 05:41:58;;;;;;;8.57;4.50;;;9.50;77.40;;;;;;5040760;28;20026;-55
2022/02/09 05:44:24;;;;;;;9.25;4.90;;;9.60;77.40;;;;;;5040714;28;20030;-53
2022/02/09 05:47:55;;;;;;;8.52;4.65;;;9.60;77.10;;;;;;5040934;28;20033;-53
2022/02/09 05:49:47;;;;;;;8.57;4.57;;;9.50;77.00;;;;;;5042706;28;20045;-52
2022/02/09 05:52:27;;;;;;;9.20;4.43;;;9.60;76.80;;;;;;5040463;28;20462;-53
2022/02/09 05:59:48;;;;;;;8.43;4.75;;;9.40;77.00;;;;;;5040139;28;20032;-56
2022/02/09 06:02:16;;;;;;;8.93;4.20;;;9.40;77.20;;;;;;5040396;28;20036;-54
2022/02/09 06:04:42;;;;;;;8.90;4.47;;;9.40;77.60;;;;;;5040595;28;20093;-51
2022/02/09 06:07:08;;;;;;;8.80;4.20;;;9.40;77.20;;;;;;5040607;28;20036;-54
2022/02/09 06:09:36;;;;;;;8.00;4.38;;;9.40;77.30;;;;;;5040293;28;20059;-53
2022/02/09 06:12:12;;;;;;;9.05;4.82;;;9.50;77.30;;;;;;5040464;28;20021;-53
2022/02/09 06:19:54;;;;;;;7.18;4.05;;;9.50;76.90;;;;;;5040002;28;20100;-54
2022/02/09 06:22:21;;;;;;;7.32;3.65;;;9.40;77.00;;;;;;5039712;28;20037;-54
2022/02/09 06:24:47;;;;;;;8.13;4.05;;;9.50;77.10;;;;;;5039895;28;20474;-53
2022/02/09 06:27:14;;;;;;;7.93;4.40;;;9.40;77.00;;;;;;5040082;28;20099;-53
2022/02/09 06:29:46;;;;;;;8.63;4.50;;;9.50;77.10;;;;;;5040155;28;20025;-55
2022/02/09 06:32:16;;;;;;;7.63;4.13;;;9.50;76.70;;;;;;5039972;28;20095;-55
2022/02/09 06:34:43;;;;;;;8.45;4.15;;;9.40;76.80;;;;;;5040330;28;20090;-52
2022/02/09 06:39:45;;;;;;;7.13;3.80;;;9.40;77.00;;;;;;5040224;28;20025;-51
2022/02/09 06:42:12;;;;;;;8.30;3.95;;;9.40;77.00;;;;;;5039491;28;20040;-51
2022/02/09 06:44:37;;;;;;;8.40;3.83;;;9.40;77.00;;;;;;5040085;28;20021;-54
2022/02/09 06:47:04;;;;;;;13.27;8.00;;;9.40;77.10;;;;;;5039462;28;20032;-52
2022/02/09 06:49:31;;;;;;;9.20;5.07;;;9.40;77.00;;;;;;5039540;28;20452;-55
2022/02/09 06:51:57;;;;;;;7.45;3.95;;;9.40;77.00;;;;;;5039866;28;20083;-51
2022/02/09 06:54:42;;;;;;;7.30;3.53;;;9.40;76.90;;;;;;5039497;28;20021;-53
2022/02/09 06:57:14;;;;;;;8.00;3.85;;;9.40;76.90;;;;;;5039640;28;20144;-52
2022/02/09 06:59:41;;;;;;;8.65;4.35;;;9.40;77.00;;;;;;5039478;28;20159;-55
2022/02/09 07:02:08;;;;;;;8.32;4.57;;;9.40;76.90;;;;;;5039264;28;20056;-50
2022/02/09 07:04:36;;;;;;;8.52;4.53;;;9.30;76.80;;;;;;5039344;28;20097;-51
2022/02/09 07:07:06;;;;;;;8.80;4.38;;;9.30;76.80;;;;;;5039227;28;20025;-54
2022/02/09 07:09:33;;;;;;;9.00;4.82;;;9.30;76.80;;;;;;5039651;28;20017;-50
2022/02/09 07:11:59;;;;;;;9.70;5.18;;;9.30;76.70;;;;;;5039158;28;20152;-52
2022/02/09 07:14:27;;;;;;;8.30;4.53;;;9.30;76.70;;;;;;5039166;28;20026;-54
2022/02/09 07:16:55;;;;;;;8.15;4.40;;;9.30;76.50;;;;;;5039236;28;20116;-52
2022/02/09 07:19:21;;;;;;;8.80;4.30;;;9.20;76.40;;;;;;5038817;28;20095;-55
2022/02/09 07:21:48;;;;;;;8.77;4.68;;;9.20;76.60;;;;;;5038616;28;20053;-51
2022/02/09 07:24:17;;;;;;;9.27;4.95;;;9.20;76.80;;;;;;5038606;28;20056;-53
2022/02/09 07:29:19;;;;;;;9.60;4.60;;;9.20;76.80;;;;;;5038509;28;20053;-54
2022/02/09 07:31:46;;;;;;;8.68;4.53;;;9.20;76.90;;;;;;5038458;28;20025;-55
2022/02/09 07:34:13;;;;;;;7.93;4.28;;;9.20;77.10;;;;;;5038325;28;20017;-55
2022/02/09 07:36:43;;;;;;;9.70;4.88;;;9.20;77.30;;;;;;5038263;28;20025;-54
2022/02/09 07:39:11;;;;;;;9.10;4.88;;;9.20;77.20;;;;;;5038412;28;20100;-55
2022/02/09 07:41:42;;;;;;;9.07;4.90;;;9.20;77.10;;;;;;5037123;28;20025;-56
2022/02/09 07:46:55;;;;;;;8.77;5.00;;;9.20;77.10;;;;;;5038205;28;20459;-54
2022/02/09 07:49:36;;;;;;;10.52;5.15;;;9.20;77.10;;;;;;5037761;28;20411;-55
2022/02/09 07:52:11;;;;;;;8.25;4.47;;;9.20;77.00;;;;;;5037959;28;20076;-54
2022/02/09 07:54:37;;;;;;;;;;;9.30;77.00;;;;;;5037916;28;20101;-54
2022/02/09 07:57:03;;;;;;;9.43;4.95;;;9.20;76.80;;;;;;5037553;28;19948;-54
2022/02/09 07:59:29;;;;;;;8.85;4.72;;;9.20;76.80;;;;;;5037940;28;20553;-55
2022/02/09 08:01:54;;;;;;;9.43;5.35;;;9.10;77.10;;;;;;5037682;28;20055;-55
2022/02/09 08:04:20;;;;;;;9.25;5.07;;;9.20;77.10;;;;;;5037877;28;20018;-54
2022/02/09 08:06:47;;;;;;;10.82;5.32;;;9.20;77.20;;;;;;5037404;28;20014;-55
2022/02/09 08:09:38;;;;;;;9.63;4.95;;;9.20;77.10;;;;;;5037810;28;20036;-50
2022/02/09 08:33:07;;;;;;;10.27;5.28;;;9.30;77.00;;;;;;5037652;28;20057;-51
2022/02/09 08:35:34;;;;;;;9.20;5.63;;;9.30;77.20;;;;;;5037887;28;20055;-49
2022/02/09 08:38:00;;;;;;;10.63;5.68;;;9.30;77.20;;;;;;5037691;28;20412;-54
2022/02/09 08:40:28;;;;;;;8.68;4.75;;;9.30;77.20;;;;;;5037709;28;20022;-52
2022/02/09 08:42:54;;;;;;;10.40;5.53;;;9.30;77.30;;;;;;5037783;28;20080;-53
2022/02/09 08:45:20;;;;;;;9.38;5.15;;;9.40;77.30;;;;;;5037248;28;20050;-53
2022/02/09 08:47:47;;;;;;;9.52;4.88;;;9.40;77.50;;;;;;5037428;28;20469;-53
2022/02/09 08:50:14;;;;;;;9.65;5.32;;;9.40;77.30;;;;;;5036765;28;20030;-49
2022/02/09 08:52:41;;;;;;;11.00;6.07;;;9.40;77.00;;;;;;5037260;28;20060;-54
2022/02/09 08:55:08;;;;;;;8.38;4.30;;;9.50;76.80;;;;;;5037311;28;20040;-54
2022/02/09 08:57:35;;;;;;;7.63;4.10;;;9.50;76.90;;;;;;5037677;28;20030;-51
2022/02/09 09:00:13;;;;;;;7.45;4.15;;;9.50;76.60;;;;;;5037718;28;20097;-55
2022/02/09 09:02:44;;;;;;;7.93;4.07;;;9.50;76.30;;;;;;5037625;28;20028;-54
2022/02/09 09:05:16;;;;;;;7.95;4.10;;;9.40;76.60;;;;;;5037230;28;20021;-52
2022/02/09 09:07:47;;;;;;;9.75;5.35;;;9.40;77.00;;;;;;5037407;28;20110;-55
2022/02/09 09:10:20;;;;;;;7.85;4.13;;;9.50;76.90;;;;;;5037267;28;20025;-53
2022/02/09 10:01:50;;;;;;;8.10;4.32;;;9.60;76.10;;;;;;5040462;28;20486;-55
2022/02/09 10:05:34;;;;;;;7.82;4.13;;;9.60;76.00;;;;;;5039101;28;20112;-50
2022/02/09 10:32:49;;;;;;;9.90;5.45;;;9.90;76.70;;;;;;5040211;28;20143;-51
2022/02/09 10:36:00;;;;;;;8.30;4.45;;;9.90;76.60;;;;;;5038464;28;20035;-52
2022/02/09 10:38:27;;;;;;;8.82;4.10;;;10.00;76.60;;;;;;5040345;28;20417;-50
2022/02/09 10:40:55;;;;;;;8.18;4.25;;;10.00;76.40;;;;;;5038416;28;20026;-51
2022/02/09 10:43:30;;;;;;;6.72;3.70;;;10.10;76.90;;;;;;5039666;28;20025;-55
2022/02/09 10:46:11;;;;;;;7.15;3.35;;;10.20;76.60;;;;;;5039726;28;20025;-53
2022/02/09 10:48:47;;;;;;;7.50;3.88;;;10.20;75.70;;;;;;5039710;28;20021;-54
2022/02/09 10:51:22;;;;;;;8.38;4.53;;;10.20;75.80;;;;;;5039416;28;20017;-50
2022/02/09 10:54:11;;;;;;;7.95;4.53;;;10.20;76.10;;;;;;5039334;28;20033;-51
2022/02/09 10:56:59;;;;;;;8.13;4.25;;;10.10;76.00;;;;;;5039808;28;20022;-55
2022/02/09 10:59:27;;;;;;;9.27;5.15;;;10.10;75.90;;;;;;5039424;28;20025;-54
2022/02/09 11:01:55;;;;;;;9.50;4.68;;;10.10;75.60;;;;;;5039437;28;20025;-56
2022/02/09 11:04:21;;;;;;;10.10;4.97;;;10.00;75.50;;;;;;5039517;28;20026;-53
2022/02/09 11:06:48;;;;;;;10.93;5.00;;;10.00;75.60;;;;;;5039305;28;20045;-54
2022/02/09 11:09:16;;;;;;;9.70;4.88;;;10.00;75.90;;;;;;5038353;28;20021;-54
2022/02/09 11:11:43;;;;;;;10.52;5.72;;;9.90;75.70;;;;;;5039144;28;20022;-55
2022/02/09 11:14:15;;;;;;;9.80;5.78;;;9.90;75.80;;;;;;5038550;28;20079;-56
2022/02/09 11:16:42;;;;;;;9.40;5.05;;;9.90;75.30;;;;;;5038185;28;20026;-55
2022/02/09 11:19:10;;;;;;;9.02;5.50;;;9.90;76.00;;;;;;5038453;28;20029;-55
2022/02/09 11:21:38;;;;;;;10.05;5.00;;;9.90;75.90;;;;;;5038285;28;20053;-56
2022/02/09 11:24:25;;;;;;;8.88;4.95;;;9.80;75.40;;;;;;5038484;28;20044;-55
2022/02/09 11:27:19;;;;;;;9.35;5.15;;;9.80;75.50;;;;;;5037991;28;20039;-56
2022/02/09 11:43:25;;;;;;;9.50;5.00;;;9.60;76.10;;;;;;5038482;28;20079;-56
2022/02/09 11:57:40;;;;;;;8.10;4.90;;;9.70;76.30;;;;;;5038103;28;20064;-54
2022/02/09 12:11:36;;;;;;;;;;;9.80;76.20;;;;;;5039640;28;20056;-55
2022/02/09 12:19:26;;;;;;;8.80;4.63;;;9.80;76.00;;;;;;5037799;28;20104;-53
2022/02/09 12:22:04;;;;;;;8.25;4.45;;;9.90;76.20;;;;;;5036561;28;20505;-51
2022/02/09 12:24:35;;;;;;;9.55;5.05;;;9.80;75.60;;;;;;5037394;28;20489;-55
2022/02/09 12:27:05;;;;;;;8.65;4.65;;;9.90;75.80;;;;;;5037887;28;20065;-55
2022/02/09 12:29:34;;;;;;;10.60;5.70;;;9.80;75.70;;;;;;5037322;28;20025;-55
2022/02/09 12:32:02;;;;;;;9.07;5.00;;;9.80;75.30;;;;;;5037136;28;20060;-51
2022/02/09 12:34:30;;;;;;;9.52;5.07;;;9.70;75.20;;;;;;5037258;28;20014;-55
2022/02/09 12:36:55;;;;;;;9.68;4.80;;;9.70;75.70;;;;;;5037393;28;20025;-53
2022/02/09 12:39:23;;;;;;;9.63;5.63;;;9.60;75.70;;;;;;5037323;28;20017;-52
2022/02/09 12:41:51;;;;;;;8.82;4.93;;;9.60;75.70;;;;;;5037352;28;20032;-51
2022/02/09 12:44:23;;;;;;;9.20;4.75;;;9.60;76.00;;;;;;5037482;28;20469;-52
2022/02/09 12:46:50;;;;;;;10.30;5.00;;;9.60;75.70;;;;;;5035728;28;20117;-53
2022/02/09 12:49:18;;;;;;;8.07;4.38;;;9.60;76.10;;;;;;5037581;28;20017;-55
2022/02/09 12:51:51;;;;;;;9.73;5.28;;;9.60;76.60;;;;;;5035691;28;20057;-54
2022/02/09 12:54:18;;;;;;;7.88;4.40;;;9.70;76.20;;;;;;5037602;28;20049;-55
2022/02/09 12:56:53;;;;;;;8.48;4.15;;;9.70;76.10;;;;;;5036903;28;20108;-53
2022/02/09 12:59:20;;;;;;;9.70;4.57;;;9.70;75.60;;;;;;5035776;28;20512;-50
2022/02/09 13:01:49;;;;;;;9.45;4.45;;;9.60;76.00;;;;;;5036699;28;20069;-52
2022/02/09 13:04:33;;;;;;;9.75;5.03;;;9.60;75.70;;;;;;5036743;28;20064;-50
2022/02/09 13:07:09;;;;;;;8.73;4.70;;;9.60;75.90;;;;;;5037156;28;20029;-55
2022/02/09 13:09:35;;;;;;;9.65;4.60;;;9.60;75.40;;;;;;5037140;28;20033;-51
2022/02/09 13:12:01;;;;;;;11.48;4.45;;;9.60;75.30;;;;;;5037289;28;20029;-54
2022/02/09 13:14:35;;;;;;;10.52;4.60;;;9.60;75.70;;;;;;5037374;28;20032;-52
2022/02/09 14:57:22;;;;;;;12.05;7.65;;;9.90;75.80;;;;;;5039442;28;20053;-52
2022/02/09 15:00:02;;;;;;;12.75;8.23;;;9.90;75.60;;;;;;5039279;28;20524;-52
2022/02/09 15:11:24;;;;;;;13.23;7.18;;;10.00;75.70;;;;;;5049023;28;20389;-52
2022/02/09 15:13:35;;;;;;;13.50;8.43;;;10.00;75.10;;;;;;5041296;28;20049;-53
2022/02/09 15:16:22;;;;;;;11.25;7.47;;;9.90;75.20;;;;;;5039611;28;20057;-49
2022/02/09 15:23:47;;;;;;;11.15;6.78;;;9.80;75.40;;;;;;5038853;28;20028;-53
2022/02/09 15:26:13;;;;;;;12.30;8.20;;;9.80;75.50;;;;;;5038710;28;20022;-53
2022/02/09 15:28:39;;;;;;;12.15;7.25;;;9.80;75.80;;;;;;5039091;28;20116;-54
2022/02/09 15:31:17;;;;;;;11.88;7.18;;;9.90;75.80;;;;;;5039134;28;20041;-51
2022/02/09 15:33:47;;;;;;;12.80;6.95;;;9.90;75.80;;;;;;5038831;28;20026;-54
2022/02/09 15:36:16;;;;;;;12.15;7.35;;;9.90;75.60;;;;;;5038787;28;20065;-51
2022/02/09 15:38:46;;;;;;;13.90;7.95;;;9.90;75.70;;;;;;5038676;28;20112;-53
2022/02/09 15:41:33;;;;;;;12.90;7.95;;;9.90;75.60;;;;;;5038725;28;20029;-49
2022/02/09 16:05:42;;;;;;;13.65;8.02;;;9.60;75.80;;;;;;5037985;28;20083;-56
2022/02/09 16:16:49;;;;;;;11.70;7.60;;;9.30;76.50;;;;;;5038190;28;20044;-51
2022/02/09 16:21:58;;;;;;;14.18;8.60;;;9.30;76.40;;;;;;5037618;28;20132;-51
2022/02/09 16:46:25;;;;;;;14.52;6.93;;;9.10;77.50;;;;;;5037723;28;20053;-52
2022/02/09 16:51:23;;;;;;;14.00;8.13;;;9.00;78.00;;;;;;5037899;28;20370;-54
2022/02/09 17:20:49;;;;;;;11.45;7.07;;;8.90;78.70;;;;;;5041579;28;20118;-52
2022/02/09 17:23:15;;;;;;;11.38;6.10;;;8.90;78.10;;;;;;5041415;28;20029;-55
2022/02/09 17:25:41;;;;;;;11.65;6.68;;;8.90;78.10;;;;;;5041221;28;20076;-54
2022/02/09 17:28:09;;;;;;;10.43;5.55;;;8.90;78.10;;;;;;5041151;28;20385;-54
2022/02/09 17:57:38;;;;;;;12.23;7.05;;;8.90;79.40;;;;;;5040568;28;20030;-55
2022/02/09 18:00:23;;;;;;;10.45;6.78;;;8.90;80.00;;;;;;5039914;28;20583;-53
2022/02/09 18:02:52;;;;;;;13.32;7.43;;;8.80;79.90;;;;;;5039090;28;20026;-54
2022/02/09 18:07:50;;;;;;;14.10;8.07;;;8.90;79.40;;;;;;5039771;28;20136;-54
2022/02/09 18:29:21;;;;;;;10.60;5.93;;;8.90;79.70;;;;;;5057345;28;20036;-56
2022/02/09 18:45:03;;;;;;;11.38;5.72;;;9.00;80.30;;;;;;5039470;28;20026;-54
2022/02/09 18:59:23;;;;;;;10.82;6.78;;;9.00;80.30;;;;;;5038983;28;20080;-54
2022/02/09 19:01:47;;;;;;;10.52;6.07;;;9.00;80.50;;;;;;5038808;28;20088;-53
2022/02/09 19:04:42;;;;;;;11.02;5.60;;;9.00;80.20;;;;;;5036947;28;20036;-56
2022/02/09 19:17:46;;;;;;;9.32;5.47;;;9.10;80.00;;;;;;5038900;28;20017;-53
2022/02/09 19:31:45;;;;;;;6.85;3.78;;;9.10;80.70;;;;;;5037901;28;20030;-56
2022/02/09 19:43:37;;;;;;;5.75;3.38;;;9.30;80.40;;;;;;5038462;28;20040;-54
2022/02/09 19:48:09;;;;;;;5.95;3.05;;;9.30;80.30;;;;;;5038399;28;20029;-55
2022/02/09 19:55:56;;;;;;;6.25;2.95;;;9.30;79.80;;;;;;5038440;28;20028;-55
2022/02/09 19:58:30;;;;;;;5.03;2.38;;;9.30;79.90;;;;;;5037737;28;20374;-56
2022/02/09 20:00:58;;;;;;;5.00;2.67;;;9.30;79.80;;;;;;5038100;28;20034;-56
2022/02/09 20:03:24;;;;;;;5.00;1.90;;;9.30;79.60;;;;;;5037583;28;20373;-50
2022/02/09 20:05:49;;;;;;;4.20;2.15;;;9.30;79.40;;;;;;5038013;28;20092;-51
2022/02/09 20:08:15;;;;;;;9.68;3.63;;;9.40;79.30;;;;;;5037900;28;20448;-54
2022/02/09 20:10:41;;;;;;;5.60;2.50;;;9.30;79.20;;;;;;5037979;28;20022;-56
2022/02/09 20:13:07;;;;;;;4.30;2.42;;;9.30;79.20;;;;;;5037922;28;20087;-53
2022/02/09 20:15:32;;;;;;;5.72;2.50;;;9.40;79.30;;;;;;5037611;28;20063;-56
2022/02/09 20:17:58;;;;;;;2.92;1.80;;;9.30;79.20;;;;;;5037414;28;20041;-55
2022/02/09 20:20:28;;;;;;;4.53;1.90;;;9.30;78.80;;;;;;5037389;28;20049;-55
2022/02/09 20:22:56;;;;;;;2.08;1.48;;;9.30;79.00;;;;;;5037635;28;20055;-56
2022/02/09 20:25:23;;;;;;;3.20;1.40;;;9.30;78.90;;;;;;5037538;28;20018;-55
2022/02/09 20:27:52;;;;;;;2.30;1.50;;;9.30;78.70;;;;;;5036750;28;20025;-52
2022/02/09 20:30:22;;;;;;;3.80;1.70;;;9.30;78.40;;;;;;5037363;28;20410;-55
2022/02/09 20:32:53;;;;;;;3.25;2.03;;;9.30;78.30;;;;;;5037077;28;20080;-55
2022/02/09 20:35:20;;;;;;;4.28;1.85;;;9.30;78.30;;;;;;5035985;28;20076;-53
2022/02/09 20:37:49;;;;;;;4.32;2.00;;;9.30;78.30;;;;;;5037184;28;20029;-51
2022/02/09 20:40:33;;;;;;;2.92;1.85;;;9.30;78.60;;;;;;5037234;28;20590;-52
2022/02/09 20:43:01;;;;;;;3.17;1.98;;;9.30;78.60;;;;;;5036498;28;20030;-53
2022/02/09 20:45:34;;;;;;;3.95;1.52;;;9.30;78.70;;;;;;5037333;28;20034;-55
2022/02/09 20:48:07;;;;;;;2.88;1.23;;;9.30;78.80;;;;;;5036987;28;20026;-54
2022/02/09 20:50:35;;;;;;;3.35;1.40;;;9.20;78.60;;;;;;5037199;28;20018;-55
2022/02/09 20:53:01;;;;;;;2.38;1.30;;;9.30;78.60;;;;;;5037473;28;20032;-52
2022/02/09 20:55:27;;;;;;;3.90;1.90;;;9.30;78.70;;;;;;5037168;28;20018;-55
2022/02/09 20:57:54;;;;;;;4.15;1.60;;;9.30;78.70;;;;;;5036959;28;20108;-54
2022/02/09 21:16:39;;;;;;;2.55;1.10;;;9.20;77.90;;;;;;5037042;28;20473;-56
2022/02/09 21:27:36;;;;;;;2.88;0.73;;;9.30;78.10;;;;;;5036700;28;20029;-54
2022/02/09 22:20:23;;;;;;;1.92;0.68;;;9.10;77.90;;;;;;5037921;28;20553;-55
2022/02/09 22:28:09;;;;;;;2.08;0.80;;;9.20;78.30;;;;;;5039560;28;20030;-54
2022/02/09 22:55:35;;;;;;;1.20;0.80;;;9.20;77.40;;;;;;5046887;28;20040;-52
2022/02/09 22:58:04;;;;;;;1.20;0.80;;;9.20;77.30;;;;;;5039502;28;20049;-55
2022/02/09 23:03:16;;;;;;;3.83;1.00;;;9.20;76.80;;;;;;5039066;28;20070;-53
2022/02/09 23:13:40;;;;;;;1.90;0.70;;;9.20;76.80;;;;;;5039283;28;20093;-54
